sensor_id;sensor_type;location;lat;lon;timestamp;P1;durP1;ratioP1;P2;durP2;ratioP2
3369;SDS011;42042;51.948;7.628;2023-08-06T00:01:56;16.73;;;12.97;;
3369;SDS011;42042;51.948;7.628;2023-08-06T00:04:23;16.20;;;13.53;;
3369;SDS011;42042;51.948;7.628;2023-08-06T00:06:52;19.30;;;13.60;;
3369;SDS011;42042;51.948;7.628;2023-08-06T00:09:19;19.80;;;15.33;;
3369;SDS011;42042;51.948;7.628;2023-08-06T00:11:46;17.77;;;13.83;;
3369;SDS011;42042;51.948;7.628;2023-08-06T00:14:13;17.57;;;14.03;;
3369;SDS011;42042;51.948;7.628;2023-08-06T00:16:43;16.20;;;13.10;;
3369;SDS011;42042;51.948;7.628;2023-08-06T00:19:10;15.13;;;13.20;;
3369;SDS011;42042;51.948;7.628;2023-08-06T00:21:38;13.90;;;12.40;;
3369;SDS011;42042;51.948;7.628;2023-08-06T00:24:06;15.33;;;12.90;;
3369;SDS011;42042;51.948;7.628;2023-08-06T00:26:33;15.00;;;12.83;;
3369;SDS011;42042;51.948;7.628;2023-08-06T00:29:01;13.67;;;11.60;;
3369;SDS011;42042;51.948;7.628;2023-08-06T00:31:28;16.43;;;13.93;;
3369;SDS011;42042;51.948;7.628;2023-08-06T00:33:55;13.83;;;12.40;;
3369;SDS011;42042;51.948;7.628;2023-08-06T00:36:22;14.67;;;12.83;;
3369;SDS011;42042;51.948;7.628;2023-08-06T00:38:50;15.70;;;13.77;;
3369;SDS011;42042;51.948;7.628;2023-08-06T00:41:18;15.93;;;13.37;;
3369;SDS011;42042;51.948;7.628;2023-08-06T00:43:46;15.83;;;12.97;;
3369;SDS011;42042;51.948;7.628;2023-08-06T00:46:13;14.53;;;13.03;;
3369;SDS011;42042;51.948;7.628;2023-08-06T00:48:40;15.80;;;13.07;;
3369;SDS011;42042;51.948;7.628;2023-08-06T00:51:08;15.97;;;13.00;;
3369;SDS011;42042;51.948;7.628;2023-08-06T00:53:37;16.50;;;12.73;;
3369;SDS011;42042;51.948;7.628;2023-08-06T00:56:04;16.90;;;15.03;;
3369;SDS011;42042;51.948;7.628;2023-08-06T00:58:33;17.10;;;14.23;;
3369;SDS011;42042;51.948;7.628;2023-08-06T01:01:01;15.63;;;14.00;;
3369;SDS011;42042;51.948;7.628;2023-08-06T01:03:28;19.60;;;14.80;;
3369;SDS011;42042;51.948;7.628;2023-08-06T01:05:55;16.50;;;14.70;;
3369;SDS011;42042;51.948;7.628;2023-08-06T01:08:28;20.10;;;15.10;;
3369;SDS011;42042;51.948;7.628;2023-08-06T01:11:00;16.17;;;14.27;;
3369;SDS011;42042;51.948;7.628;2023-08-06T01:13:31;15.73;;;14.13;;
3369;SDS011;42042;51.948;7.628;2023-08-06T01:16:01;16.60;;;13.60;;
3369;SDS011;42042;51.948;7.628;2023-08-06T01:18:28;14.83;;;13.30;;
3369;SDS011;42042;51.948;7.628;2023-08-06T01:20:57;18.53;;;15.10;;
3369;SDS011;42042;51.948;7.628;2023-08-06T01:23:24;15.83;;;14.23;;
3369;SDS011;42042;51.948;7.628;2023-08-06T01:25:55;14.23;;;12.70;;
3369;SDS011;42042;51.948;7.628;2023-08-06T01:28:27;15.50;;;13.37;;
3369;SDS011;42042;51.948;7.628;2023-08-06T01:30:54;14.87;;;13.33;;
3369;SDS011;42042;51.948;7.628;2023-08-06T01:33:22;17.47;;;14.63;;
3369;SDS011;42042;51.948;7.628;2023-08-06T01:35:49;16.00;;;13.60;;
3369;SDS011;42042;51.948;7.628;2023-08-06T01:38:18;15.70;;;13.67;;
3369;SDS011;42042;51.948;7.628;2023-08-06T01:40:46;17.13;;;13.20;;
3369;SDS011;42042;51.948;7.628;2023-08-06T01:43:13;15.37;;;13.37;;
3369;SDS011;42042;51.948;7.628;2023-08-06T01:45:40;15.73;;;13.30;;
3369;SDS011;42042;51.948;7.628;2023-08-06T01:48:07;24.20;;;13.47;;
3369;SDS011;42042;51.948;7.628;2023-08-06T01:50:35;16.80;;;14.30;;
3369;SDS011;42042;51.948;7.628;2023-08-06T01:53:02;17.63;;;14.20;;
3369;SDS011;42042;51.948;7.628;2023-08-06T01:55:31;14.63;;;13.13;;
3369;SDS011;42042;51.948;7.628;2023-08-06T01:57:58;15.40;;;11.33;;
3369;SDS011;42042;51.948;7.628;2023-08-06T02:00:25;17.90;;;13.73;;
3369;SDS011;42042;51.948;7.628;2023-08-06T02:02:54;17.40;;;12.70;;
3369;SDS011;42042;51.948;7.628;2023-08-06T02:05:21;13.77;;;12.37;;
3369;SDS011;42042;51.948;7.628;2023-08-06T02:07:48;19.97;;;12.73;;
3369;SDS011;42042;51.948;7.628;2023-08-06T02:10:15;14.70;;;12.90;;
3369;SDS011;42042;51.948;7.628;2023-08-06T02:12:44;15.23;;;13.17;;
3369;SDS011;42042;51.948;7.628;2023-08-06T02:15:11;15.97;;;13.73;;
3369;SDS011;42042;51.948;7.628;2023-08-06T02:17:38;17.27;;;14.40;;
3369;SDS011;42042;51.948;7.628;2023-08-06T02:20:06;17.07;;;12.83;;
3369;SDS011;42042;51.948;7.628;2023-08-06T02:22:33;16.50;;;13.33;;
3369;SDS011;42042;51.948;7.628;2023-08-06T02:25:00;15.33;;;12.33;;
3369;SDS011;42042;51.948;7.628;2023-08-06T02:27:28;14.10;;;12.70;;
3369;SDS011;42042;51.948;7.628;2023-08-06T02:29:56;16.70;;;12.80;;
3369;SDS011;42042;51.948;7.628;2023-08-06T02:32:23;13.37;;;11.40;;
3369;SDS011;42042;51.948;7.628;2023-08-06T02:34:51;14.77;;;12.70;;
3369;SDS011;42042;51.948;7.628;2023-08-06T02:37:18;17.30;;;12.47;;
3369;SDS011;42042;51.948;7.628;2023-08-06T02:39:45;17.07;;;12.73;;
3369;SDS011;42042;51.948;7.628;2023-08-06T02:42:13;13.93;;;12.37;;
3369;SDS011;42042;51.948;7.628;2023-08-06T02:44:40;14.50;;;12.17;;
3369;SDS011;42042;51.948;7.628;2023-08-06T02:47:08;18.83;;;12.07;;
3369;SDS011;42042;51.948;7.628;2023-08-06T02:49:35;20.83;;;11.63;;
3369;SDS011;42042;51.948;7.628;2023-08-06T02:52:03;13.93;;;12.33;;
3369;SDS011;42042;51.948;7.628;2023-08-06T02:54:30;16.03;;;12.97;;
3369;SDS011;42042;51.948;7.628;2023-08-06T02:56:57;13.43;;;12.13;;
3369;SDS011;42042;51.948;7.628;2023-08-06T02:59:24;15.97;;;10.70;;
3369;SDS011;42042;51.948;7.628;2023-08-06T03:01:52;13.90;;;11.87;;
3369;SDS011;42042;51.948;7.628;2023-08-06T03:04:20;21.53;;;15.03;;
3369;SDS011;42042;51.948;7.628;2023-08-06T03:06:48;22.60;;;12.30;;
3369;SDS011;42042;51.948;7.628;2023-08-06T03:09:16;14.03;;;12.60;;
3369;SDS011;42042;51.948;7.628;2023-08-06T03:11:43;18.23;;;12.80;;
3369;SDS011;42042;51.948;7.628;2023-08-06T03:14:10;14.77;;;11.80;;
3369;SDS011;42042;51.948;7.628;2023-08-06T03:16:37;13.83;;;12.43;;
3369;SDS011;42042;51.948;7.628;2023-08-06T03:19:04;16.37;;;13.37;;
3369;SDS011;42042;51.948;7.628;2023-08-06T03:21:33;16.90;;;13.10;;
3369;SDS011;42042;51.948;7.628;2023-08-06T03:24:00;13.77;;;11.10;;
3369;SDS011;42042;51.948;7.628;2023-08-06T03:26:27;13.40;;;11.87;;
3369;SDS011;42042;51.948;7.628;2023-08-06T03:28:55;22.90;;;13.37;;
3369;SDS011;42042;51.948;7.628;2023-08-06T03:31:22;13.27;;;11.97;;
3369;SDS011;42042;51.948;7.628;2023-08-06T03:33:49;12.80;;;11.23;;
3369;SDS011;42042;51.948;7.628;2023-08-06T03:36:16;15.27;;;13.50;;
3369;SDS011;42042;51.948;7.628;2023-08-06T03:38:45;13.07;;;11.80;;
3369;SDS011;42042;51.948;7.628;2023-08-06T03:41:12;15.10;;;12.37;;
3369;SDS011;42042;51.948;7.628;2023-08-06T03:43:39;14.33;;;11.47;;
3369;SDS011;42042;51.948;7.628;2023-08-06T03:46:07;17.70;;;11.93;;
3369;SDS011;42042;51.948;7.628;2023-08-06T03:48:34;13.87;;;12.30;;
3369;SDS011;42042;51.948;7.628;2023-08-06T03:51:01;14.17;;;12.50;;
3369;SDS011;42042;51.948;7.628;2023-08-06T03:53:28;12.70;;;11.40;;
3369;SDS011;42042;51.948;7.628;2023-08-06T03:55:57;14.00;;;12.60;;
3369;SDS011;42042;51.948;7.628;2023-08-06T03:58:25;15.30;;;12.23;;
3369;SDS011;42042;51.948;7.628;2023-08-06T04:00:57;13.30;;;12.10;;
3369;SDS011;42042;51.948;7.628;2023-08-06T04:03:24;14.00;;;11.40;;
3369;SDS011;42042;51.948;7.628;2023-08-06T04:05:52;12.80;;;11.50;;
3369;SDS011;42042;51.948;7.628;2023-08-06T04:08:19;14.20;;;12.17;;
3369;SDS011;42042;51.948;7.628;2023-08-06T04:10:48;14.13;;;12.60;;
3369;SDS011;42042;51.948;7.628;2023-08-06T04:13:17;13.23;;;11.83;;
3369;SDS011;42042;51.948;7.628;2023-08-06T04:15:44;13.60;;;12.10;;
3369;SDS011;42042;51.948;7.628;2023-08-06T04:18:12;18.83;;;11.60;;
3369;SDS011;42042;51.948;7.628;2023-08-06T04:20:42;13.90;;;12.20;;
3369;SDS011;42042;51.948;7.628;2023-08-06T04:23:10;16.23;;;12.27;;
3369;SDS011;42042;51.948;7.628;2023-08-06T04:25:37;19.00;;;13.20;;
3369;SDS011;42042;51.948;7.628;2023-08-06T04:28:04;15.47;;;13.53;;
3369;SDS011;42042;51.948;7.628;2023-08-06T04:30:33;12.10;;;10.90;;
3369;SDS011;42042;51.948;7.628;2023-08-06T04:33:00;13.27;;;11.60;;
3369;SDS011;42042;51.948;7.628;2023-08-06T04:35:27;12.47;;;11.17;;
3369;SDS011;42042;51.948;7.628;2023-08-06T04:37:55;12.40;;;11.10;;
3369;SDS011;42042;51.948;7.628;2023-08-06T04:40:22;11.57;;;10.30;;
3369;SDS011;42042;51.948;7.628;2023-08-06T04:42:49;14.37;;;11.63;;
3369;SDS011;42042;51.948;7.628;2023-08-06T04:45:16;16.20;;;11.93;;
3369;SDS011;42042;51.948;7.628;2023-08-06T04:47:45;13.17;;;11.97;;
3369;SDS011;42042;51.948;7.628;2023-08-06T04:50:12;16.60;;;11.17;;
3369;SDS011;42042;51.948;7.628;2023-08-06T04:52:39;12.70;;;11.03;;
3369;SDS011;42042;51.948;7.628;2023-08-06T04:55:06;14.63;;;11.30;;
3369;SDS011;42042;51.948;7.628;2023-08-06T04:57:33;16.33;;;11.67;;
3369;SDS011;42042;51.948;7.628;2023-08-06T05:00:01;14.40;;;12.90;;
3369;SDS011;42042;51.948;7.628;2023-08-06T05:02:29;16.77;;;12.67;;
3369;SDS011;42042;51.948;7.628;2023-08-06T05:04:58;12.50;;;10.97;;
3369;SDS011;42042;51.948;7.628;2023-08-06T05:07:26;16.47;;;11.77;;
3369;SDS011;42042;51.948;7.628;2023-08-06T05:09:53;13.80;;;10.67;;
3369;SDS011;42042;51.948;7.628;2023-08-06T05:12:20;15.30;;;10.20;;
3369;SDS011;42042;51.948;7.628;2023-08-06T05:14:47;14.40;;;11.70;;
3369;SDS011;42042;51.948;7.628;2023-08-06T05:17:14;13.07;;;11.27;;
3369;SDS011;42042;51.948;7.628;2023-08-06T05:19:42;13.00;;;9.03;;
3369;SDS011;42042;51.948;7.628;2023-08-06T05:22:10;12.73;;;11.10;;
3369;SDS011;42042;51.948;7.628;2023-08-06T05:24:37;15.37;;;10.07;;
3369;SDS011;42042;51.948;7.628;2023-08-06T05:27:05;10.53;;;9.63;;
3369;SDS011;42042;51.948;7.628;2023-08-06T05:29:32;11.00;;;9.87;;
3369;SDS011;42042;51.948;7.628;2023-08-06T05:31:59;9.00;;;8.20;;
3369;SDS011;42042;51.948;7.628;2023-08-06T05:34:26;11.10;;;9.33;;
3369;SDS011;42042;51.948;7.628;2023-08-06T05:36:54;10.20;;;9.30;;
3369;SDS011;42042;51.948;7.628;2023-08-06T05:39:22;12.43;;;9.80;;
3369;SDS011;42042;51.948;7.628;2023-08-06T05:41:49;12.83;;;9.23;;
3369;SDS011;42042;51.948;7.628;2023-08-06T05:44:17;11.60;;;10.40;;
3369;SDS011;42042;51.948;7.628;2023-08-06T05:46:44;10.43;;;8.60;;
3369;SDS011;42042;51.948;7.628;2023-08-06T05:49:11;9.90;;;8.90;;
3369;SDS011;42042;51.948;7.628;2023-08-06T05:51:39;13.43;;;9.73;;
3369;SDS011;42042;51.948;7.628;2023-08-06T05:54:06;9.03;;;8.13;;
3369;SDS011;42042;51.948;7.628;2023-08-06T05:56:35;8.97;;;8.17;;
3369;SDS011;42042;51.948;7.628;2023-08-06T05:59:02;9.33;;;8.03;;
3369;SDS011;42042;51.948;7.628;2023-08-06T06:01:29;9.27;;;8.37;;
3369;SDS011;42042;51.948;7.628;2023-08-06T06:03:56;7.70;;;6.90;;
3369;SDS011;42042;51.948;7.628;2023-08-06T06:06:24;9.00;;;7.50;;
3369;SDS011;42042;51.948;7.628;2023-08-06T06:08:51;8.47;;;7.53;;
3369;SDS011;42042;51.948;7.628;2023-08-06T06:11:18;10.27;;;7.47;;
3369;SDS011;42042;51.948;7.628;2023-08-06T06:13:48;7.70;;;6.90;;
3369;SDS011;42042;51.948;7.628;2023-08-06T06:16:15;8.40;;;7.60;;
3369;SDS011;42042;51.948;7.628;2023-08-06T06:18:43;9.00;;;8.10;;
3369;SDS011;42042;51.948;7.628;2023-08-06T06:21:10;11.37;;;7.70;;
3369;SDS011;42042;51.948;7.628;2023-08-06T06:23:37;8.30;;;7.60;;
3369;SDS011;42042;51.948;7.628;2023-08-06T06:26:04;8.43;;;7.37;;
3369;SDS011;42042;51.948;7.628;2023-08-06T06:28:32;8.10;;;7.30;;
3369;SDS011;42042;51.948;7.628;2023-08-06T06:31:01;7.67;;;6.47;;
3369;SDS011;42042;51.948;7.628;2023-08-06T06:33:28;9.83;;;6.47;;
3369;SDS011;42042;51.948;7.628;2023-08-06T06:35:56;8.30;;;7.33;;
3369;SDS011;42042;51.948;7.628;2023-08-06T06:38:23;8.07;;;7.27;;
3369;SDS011;42042;51.948;7.628;2023-08-06T06:40:53;7.67;;;6.70;;
3369;SDS011;42042;51.948;7.628;2023-08-06T06:43:20;7.50;;;6.83;;
3369;SDS011;42042;51.948;7.628;2023-08-06T06:45:51;8.77;;;7.30;;
3369;SDS011;42042;51.948;7.628;2023-08-06T06:48:20;8.43;;;7.60;;
3369;SDS011;42042;51.948;7.628;2023-08-06T06:50:48;7.70;;;6.90;;
3369;SDS011;42042;51.948;7.628;2023-08-06T06:53:15;8.90;;;7.27;;
3369;SDS011;42042;51.948;7.628;2023-08-06T06:55:42;7.90;;;7.20;;
3369;SDS011;42042;51.948;7.628;2023-08-06T06:58:09;7.93;;;7.30;;
3369;SDS011;42042;51.948;7.628;2023-08-06T07:00:36;11.77;;;7.53;;
3369;SDS011;42042;51.948;7.628;2023-08-06T07:03:03;8.73;;;7.00;;
3369;SDS011;42042;51.948;7.628;2023-08-06T07:05:32;7.87;;;6.90;;
3369;SDS011;42042;51.948;7.628;2023-08-06T07:07:59;7.73;;;6.50;;
3369;SDS011;42042;51.948;7.628;2023-08-06T07:10:26;6.50;;;6.00;;
3369;SDS011;42042;51.948;7.628;2023-08-06T07:12:53;6.63;;;6.10;;
3369;SDS011;42042;51.948;7.628;2023-08-06T07:15:21;6.93;;;6.33;;
3369;SDS011;42042;51.948;7.628;2023-08-06T07:17:48;6.37;;;5.77;;
3369;SDS011;42042;51.948;7.628;2023-08-06T07:20:15;8.83;;;5.60;;
3369;SDS011;42042;51.948;7.628;2023-08-06T07:22:44;8.80;;;5.80;;
3369;SDS011;42042;51.948;7.628;2023-08-06T07:25:11;18.20;;;6.97;;
3369;SDS011;42042;51.948;7.628;2023-08-06T07:27:39;8.63;;;6.20;;
3369;SDS011;42042;51.948;7.628;2023-08-06T07:30:06;6.87;;;6.27;;
3369;SDS011;42042;51.948;7.628;2023-08-06T07:32:34;6.83;;;6.33;;
3369;SDS011;42042;51.948;7.628;2023-08-06T07:35:01;8.70;;;6.13;;
3369;SDS011;42042;51.948;7.628;2023-08-06T07:37:28;6.73;;;4.83;;
3369;SDS011;42042;51.948;7.628;2023-08-06T07:39:57;5.93;;;5.40;;
3369;SDS011;42042;51.948;7.628;2023-08-06T07:42:24;5.93;;;5.43;;
3369;SDS011;42042;51.948;7.628;2023-08-06T07:44:51;5.77;;;5.17;;
3369;SDS011;42042;51.948;7.628;2023-08-06T07:47:19;5.90;;;5.30;;
3369;SDS011;42042;51.948;7.628;2023-08-06T07:49:46;14.20;;;7.20;;
3369;SDS011;42042;51.948;7.628;2023-08-06T07:52:14;6.23;;;5.67;;
3369;SDS011;42042;51.948;7.628;2023-08-06T07:54:41;5.40;;;4.90;;
3369;SDS011;42042;51.948;7.628;2023-08-06T07:57:09;5.17;;;4.70;;
3369;SDS011;42042;51.948;7.628;2023-08-06T07:59:36;10.20;;;4.57;;
3369;SDS011;42042;51.948;7.628;2023-08-06T08:02:04;6.37;;;4.03;;
3369;SDS011;42042;51.948;7.628;2023-08-06T08:04:32;8.47;;;3.90;;
3369;SDS011;42042;51.948;7.628;2023-08-06T08:06:59;4.13;;;3.80;;
3369;SDS011;42042;51.948;7.628;2023-08-06T08:09:27;3.40;;;3.20;;
3369;SDS011;42042;51.948;7.628;2023-08-06T08:11:54;3.03;;;2.83;;
3369;SDS011;42042;51.948;7.628;2023-08-06T08:14:23;7.10;;;3.07;;
3369;SDS011;42042;51.948;7.628;2023-08-06T08:16:50;3.77;;;3.13;;
3369;SDS011;42042;51.948;7.628;2023-08-06T08:19:17;3.80;;;3.40;;
3369;SDS011;42042;51.948;7.628;2023-08-06T08:21:46;3.97;;;3.57;;
3369;SDS011;42042;51.948;7.628;2023-08-06T08:24:13;5.10;;;4.20;;
3369;SDS011;42042;51.948;7.628;2023-08-06T08:26:40;8.13;;;5.47;;
3369;SDS011;42042;51.948;7.628;2023-08-06T08:29:07;8.60;;;6.63;;
3369;SDS011;42042;51.948;7.628;2023-08-06T08:31:36;6.60;;;4.70;;
3369;SDS011;42042;51.948;7.628;2023-08-06T08:34:04;8.63;;;4.40;;
3369;SDS011;42042;51.948;7.628;2023-08-06T08:36:31;4.30;;;3.80;;
3369;SDS011;42042;51.948;7.628;2023-08-06T08:38:59;3.87;;;3.47;;
3369;SDS011;42042;51.948;7.628;2023-08-06T08:41:27;4.73;;;4.30;;
3369;SDS011;42042;51.948;7.628;2023-08-06T08:43:55;3.70;;;3.20;;
3369;SDS011;42042;51.948;7.628;2023-08-06T08:46:22;3.30;;;3.10;;
3369;SDS011;42042;51.948;7.628;2023-08-06T08:48:51;4.73;;;3.20;;
3369;SDS011;42042;51.948;7.628;2023-08-06T08:51:19;4.20;;;3.50;;
3369;SDS011;42042;51.948;7.628;2023-08-06T08:53:47;3.97;;;3.37;;
3369;SDS011;42042;51.948;7.628;2023-08-06T08:56:16;3.50;;;3.20;;
3369;SDS011;42042;51.948;7.628;2023-08-06T08:58:44;4.27;;;3.30;;
3369;SDS011;42042;51.948;7.628;2023-08-06T09:01:11;5.87;;;3.87;;
3369;SDS011;42042;51.948;7.628;2023-08-06T09:03:39;4.07;;;3.40;;
3369;SDS011;42042;51.948;7.628;2023-08-06T09:06:07;3.60;;;3.30;;
3369;SDS011;42042;51.948;7.628;2023-08-06T09:08:37;3.30;;;3.10;;
3369;SDS011;42042;51.948;7.628;2023-08-06T09:11:06;3.80;;;3.47;;
3369;SDS011;42042;51.948;7.628;2023-08-06T09:13:36;3.80;;;3.50;;
3369;SDS011;42042;51.948;7.628;2023-08-06T09:16:04;3.20;;;3.00;;
3369;SDS011;42042;51.948;7.628;2023-08-06T09:18:34;3.50;;;3.20;;
3369;SDS011;42042;51.948;7.628;2023-08-06T09:21:01;9.90;;;3.53;;
3369;SDS011;42042;51.948;7.628;2023-08-06T09:23:30;3.80;;;3.47;;
3369;SDS011;42042;51.948;7.628;2023-08-06T09:25:59;5.53;;;3.07;;
3369;SDS011;42042;51.948;7.628;2023-08-06T09:28:36;6.20;;;3.37;;
3369;SDS011;42042;51.948;7.628;2023-08-06T09:31:04;3.50;;;3.20;;
3369;SDS011;42042;51.948;7.628;2023-08-06T09:33:31;3.50;;;3.20;;
3369;SDS011;42042;51.948;7.628;2023-08-06T09:36:05;3.47;;;3.17;;
3369;SDS011;42042;51.948;7.628;2023-08-06T09:38:38;3.50;;;3.20;;
3369;SDS011;42042;51.948;7.628;2023-08-06T09:41:06;3.57;;;3.37;;
3369;SDS011;42042;51.948;7.628;2023-08-06T09:43:40;3.87;;;3.47;;
3369;SDS011;42042;51.948;7.628;2023-08-06T09:46:11;4.53;;;4.13;;
3369;SDS011;42042;51.948;7.628;2023-08-06T09:48:39;5.67;;;3.13;;
3369;SDS011;42042;51.948;7.628;2023-08-06T09:51:07;3.83;;;3.53;;
3369;SDS011;42042;51.948;7.628;2023-08-06T09:53:35;4.10;;;3.03;;
3369;SDS011;42042;51.948;7.628;2023-08-06T09:56:05;4.20;;;2.83;;
3369;SDS011;42042;51.948;7.628;2023-08-06T09:58:32;3.13;;;2.83;;
3369;SDS011;42042;51.948;7.628;2023-08-06T10:01:00;4.90;;;3.03;;
3369;SDS011;42042;51.948;7.628;2023-08-06T10:06:01;3.67;;;3.30;;
3369;SDS011;42042;51.948;7.628;2023-08-06T10:08:32;3.20;;;2.97;;
3369;SDS011;42042;51.948;7.628;2023-08-06T10:10:59;4.03;;;2.57;;
3369;SDS011;42042;51.948;7.628;2023-08-06T10:13:30;3.60;;;2.93;;
3369;SDS011;42042;51.948;7.628;2023-08-06T10:15:57;3.53;;;2.90;;
3369;SDS011;42042;51.948;7.628;2023-08-06T10:18:25;4.43;;;3.00;;
3369;SDS011;42042;51.948;7.628;2023-08-06T10:20:53;3.23;;;2.73;;
3369;SDS011;42042;51.948;7.628;2023-08-06T10:23:21;3.70;;;3.03;;
3369;SDS011;42042;51.948;7.628;2023-08-06T10:25:59;2.87;;;2.67;;
3369;SDS011;42042;51.948;7.628;2023-08-06T10:28:36;3.17;;;2.93;;
3369;SDS011;42042;51.948;7.628;2023-08-06T10:31:05;4.20;;;3.37;;
3369;SDS011;42042;51.948;7.628;2023-08-06T10:33:42;5.47;;;2.33;;
3369;SDS011;42042;51.948;7.628;2023-08-06T10:36:09;3.13;;;2.83;;
3369;SDS011;42042;51.948;7.628;2023-08-06T10:38:44;2.73;;;2.37;;
3369;SDS011;42042;51.948;7.628;2023-08-06T10:41:15;6.37;;;2.87;;
3369;SDS011;42042;51.948;7.628;2023-08-06T10:43:43;4.53;;;4.10;;
3369;SDS011;42042;51.948;7.628;2023-08-06T10:46:21;3.30;;;3.00;;
3369;SDS011;42042;51.948;7.628;2023-08-06T10:48:49;3.53;;;3.20;;
3369;SDS011;42042;51.948;7.628;2023-08-06T10:51:16;2.80;;;2.60;;
3369;SDS011;42042;51.948;7.628;2023-08-06T10:53:44;4.00;;;3.10;;
3369;SDS011;42042;51.948;7.628;2023-08-06T10:56:12;3.03;;;2.70;;
3369;SDS011;42042;51.948;7.628;2023-08-06T10:58:40;8.57;;;2.47;;
3369;SDS011;42042;51.948;7.628;2023-08-06T11:01:09;3.97;;;2.93;;
3369;SDS011;42042;51.948;7.628;2023-08-06T11:03:36;3.20;;;2.90;;
3369;SDS011;42042;51.948;7.628;2023-08-06T11:06:04;2.70;;;2.50;;
3369;SDS011;42042;51.948;7.628;2023-08-06T11:08:33;4.53;;;2.33;;
3369;SDS011;42042;51.948;7.628;2023-08-06T11:11:07;2.10;;;1.90;;
3369;SDS011;42042;51.948;7.628;2023-08-06T11:13:36;3.27;;;2.20;;
3369;SDS011;42042;51.948;7.628;2023-08-06T11:16:03;2.70;;;2.50;;
3369;SDS011;42042;51.948;7.628;2023-08-06T11:18:32;2.90;;;2.30;;
3369;SDS011;42042;51.948;7.628;2023-08-06T11:21:00;3.73;;;2.50;;
3369;SDS011;42042;51.948;7.628;2023-08-06T11:23:28;2.80;;;2.60;;
3369;SDS011;42042;51.948;7.628;2023-08-06T11:25:55;3.13;;;2.83;;
3369;SDS011;42042;51.948;7.628;2023-08-06T11:28:22;3.90;;;2.80;;
3369;SDS011;42042;51.948;7.628;2023-08-06T11:30:50;4.67;;;3.20;;
3369;SDS011;42042;51.948;7.628;2023-08-06T11:33:19;3.40;;;3.10;;
3369;SDS011;42042;51.948;7.628;2023-08-06T11:35:49;2.97;;;2.77;;
3369;SDS011;42042;51.948;7.628;2023-08-06T11:38:16;3.30;;;2.90;;
3369;SDS011;42042;51.948;7.628;2023-08-06T11:40:44;4.13;;;3.03;;
3369;SDS011;42042;51.948;7.628;2023-08-06T11:43:11;2.90;;;2.60;;
3369;SDS011;42042;51.948;7.628;2023-08-06T11:45:39;5.40;;;3.30;;
3369;SDS011;42042;51.948;7.628;2023-08-06T11:48:07;2.80;;;2.60;;
3369;SDS011;42042;51.948;7.628;2023-08-06T11:50:36;4.53;;;2.70;;
3369;SDS011;42042;51.948;7.628;2023-08-06T11:53:05;4.40;;;2.63;;
3369;SDS011;42042;51.948;7.628;2023-08-06T11:55:32;2.67;;;2.43;;
3369;SDS011;42042;51.948;7.628;2023-08-06T11:58:02;3.20;;;2.70;;
3369;SDS011;42042;51.948;7.628;2023-08-06T12:00:30;5.43;;;2.83;;
3369;SDS011;42042;51.948;7.628;2023-08-06T12:02:57;3.17;;;2.87;;
3369;SDS011;42042;51.948;7.628;2023-08-06T12:05:29;3.77;;;3.43;;
3369;SDS011;42042;51.948;7.628;2023-08-06T12:07:58;4.40;;;2.73;;
3369;SDS011;42042;51.948;7.628;2023-08-06T12:10:27;4.17;;;2.87;;
3369;SDS011;42042;51.948;7.628;2023-08-06T12:12:54;3.83;;;3.50;;
3369;SDS011;42042;51.948;7.628;2023-08-06T12:15:22;5.53;;;3.93;;
3369;SDS011;42042;51.948;7.628;2023-08-06T12:17:49;4.03;;;3.73;;
3369;SDS011;42042;51.948;7.628;2023-08-06T12:20:17;4.00;;;3.70;;
3369;SDS011;42042;51.948;7.628;2023-08-06T12:22:44;4.97;;;3.90;;
3369;SDS011;42042;51.948;7.628;2023-08-06T12:25:11;5.67;;;4.27;;
3369;SDS011;42042;51.948;7.628;2023-08-06T12:27:40;4.13;;;3.73;;
3369;SDS011;42042;51.948;7.628;2023-08-06T12:30:08;4.30;;;3.83;;
3369;SDS011;42042;51.948;7.628;2023-08-06T12:32:35;5.70;;;4.00;;
3369;SDS011;42042;51.948;7.628;2023-08-06T12:35:03;4.10;;;3.70;;
3369;SDS011;42042;51.948;7.628;2023-08-06T12:37:32;3.97;;;3.67;;
3369;SDS011;42042;51.948;7.628;2023-08-06T12:39:59;4.60;;;3.90;;
3369;SDS011;42042;51.948;7.628;2023-08-06T12:42:26;4.57;;;4.20;;
3369;SDS011;42042;51.948;7.628;2023-08-06T12:44:55;4.40;;;4.00;;
3369;SDS011;42042;51.948;7.628;2023-08-06T12:47:22;5.80;;;3.63;;
3369;SDS011;42042;51.948;7.628;2023-08-06T12:49:49;3.40;;;3.20;;
3369;SDS011;42042;51.948;7.628;2023-08-06T12:52:16;3.27;;;2.97;;
3369;SDS011;42042;51.948;7.628;2023-08-06T12:54:44;6.50;;;3.37;;
3369;SDS011;42042;51.948;7.628;2023-08-06T12:57:12;3.17;;;2.97;;
3369;SDS011;42042;51.948;7.628;2023-08-06T12:59:39;3.03;;;2.73;;
3369;SDS011;42042;51.948;7.628;2023-08-06T13:02:08;2.70;;;2.50;;
3369;SDS011;42042;51.948;7.628;2023-08-06T13:04:36;2.90;;;2.70;;
3369;SDS011;42042;51.948;7.628;2023-08-06T13:07:04;2.90;;;2.70;;
3369;SDS011;42042;51.948;7.628;2023-08-06T13:09:32;3.47;;;2.90;;
3369;SDS011;42042;51.948;7.628;2023-08-06T13:11:59;3.80;;;3.00;;
3369;SDS011;42042;51.948;7.628;2023-08-06T13:14:30;3.87;;;2.93;;
3369;SDS011;42042;51.948;7.628;2023-08-06T13:16:58;4.50;;;3.03;;
3369;SDS011;42042;51.948;7.628;2023-08-06T13:19:26;4.00;;;2.80;;
3369;SDS011;42042;51.948;7.628;2023-08-06T13:22:00;3.80;;;2.77;;
3369;SDS011;42042;51.948;7.628;2023-08-06T13:24:29;3.47;;;3.17;;
3369;SDS011;42042;51.948;7.628;2023-08-06T13:26:56;5.00;;;3.90;;
3369;SDS011;42042;51.948;7.628;2023-08-06T13:29:24;4.00;;;3.60;;
3369;SDS011;42042;51.948;7.628;2023-08-06T13:31:51;4.03;;;3.50;;
3369;SDS011;42042;51.948;7.628;2023-08-06T13:34:19;4.57;;;3.83;;
3369;SDS011;42042;51.948;7.628;2023-08-06T13:36:48;3.70;;;3.40;;
3369;SDS011;42042;51.948;7.628;2023-08-06T13:39:16;4.03;;;3.73;;
3369;SDS011;42042;51.948;7.628;2023-08-06T13:41:44;4.03;;;3.73;;
3369;SDS011;42042;51.948;7.628;2023-08-06T13:44:11;3.57;;;3.37;;
3369;SDS011;42042;51.948;7.628;2023-08-06T13:46:40;4.10;;;3.80;;
3369;SDS011;42042;51.948;7.628;2023-08-06T13:49:07;3.53;;;3.23;;
3369;SDS011;42042;51.948;7.628;2023-08-06T13:51:34;3.43;;;3.13;;
3369;SDS011;42042;51.948;7.628;2023-08-06T13:54:03;3.30;;;3.00;;
3369;SDS011;42042;51.948;7.628;2023-08-06T13:56:31;5.10;;;3.10;;
3369;SDS011;42042;51.948;7.628;2023-08-06T13:58:59;3.67;;;3.37;;
3369;SDS011;42042;51.948;7.628;2023-08-06T14:01:26;4.63;;;3.53;;
3369;SDS011;42042;51.948;7.628;2023-08-06T14:03:54;5.10;;;2.87;;
3369;SDS011;42042;51.948;7.628;2023-08-06T14:06:21;2.97;;;2.77;;
3369;SDS011;42042;51.948;7.628;2023-08-06T14:08:48;3.77;;;3.07;;
3369;SDS011;42042;51.948;7.628;2023-08-06T14:11:17;4.40;;;3.23;;
3369;SDS011;42042;51.948;7.628;2023-08-06T14:13:44;2.83;;;2.63;;
3369;SDS011;42042;51.948;7.628;2023-08-06T14:16:11;3.63;;;3.27;;
3369;SDS011;42042;51.948;7.628;2023-08-06T14:18:38;3.97;;;3.60;;
3369;SDS011;42042;51.948;7.628;2023-08-06T14:21:06;3.43;;;3.13;;
3369;SDS011;42042;51.948;7.628;2023-08-06T14:23:33;3.33;;;3.03;;
3369;SDS011;42042;51.948;7.628;2023-08-06T14:26:00;3.37;;;3.17;;
3369;SDS011;42042;51.948;7.628;2023-08-06T14:28:29;4.20;;;3.70;;
3369;SDS011;42042;51.948;7.628;2023-08-06T14:30:57;3.07;;;2.77;;
3369;SDS011;42042;51.948;7.628;2023-08-06T14:33:24;3.40;;;3.10;;
3369;SDS011;42042;51.948;7.628;2023-08-06T14:35:51;5.10;;;3.00;;
3369;SDS011;42042;51.948;7.628;2023-08-06T14:38:18;5.70;;;3.40;;
3369;SDS011;42042;51.948;7.628;2023-08-06T14:40:45;5.67;;;2.90;;
3369;SDS011;42042;51.948;7.628;2023-08-06T14:43:12;6.07;;;4.60;;
3369;SDS011;42042;51.948;7.628;2023-08-06T14:45:41;8.33;;;5.43;;
3369;SDS011;42042;51.948;7.628;2023-08-06T14:48:08;7.60;;;6.60;;
3369;SDS011;42042;51.948;7.628;2023-08-06T14:50:35;6.97;;;5.40;;
3369;SDS011;42042;51.948;7.628;2023-08-06T14:53:04;8.23;;;5.60;;
3369;SDS011;42042;51.948;7.628;2023-08-06T14:55:31;9.13;;;5.90;;
3369;SDS011;42042;51.948;7.628;2023-08-06T14:57:58;6.70;;;5.73;;